Strona główna
METAR-TAF:

METAR-TAF

Lotnisko :

São Paulo, São Paulo, Brazylia

Szerokość geograficzna: 23-31S, Długość geograficzna: 046-38W, wysokość: 722 m

Aktualna obserwacja pogody

Raport powstał 56 minut temu, godzina 02:00 UTC
Wiatr 5 kt od wschodnio-południowy wschód
Temperatura 23°C
Wilgotność 83%
Ciśnienie 1016 hPa
Widzialność 10 km lub więcej
Rozproszone chmury na wysokości 1300 ft

METAR: SBMT 190200Z 11005KT 9999 SCT013 23/20 Q1016

czas: 23:56 (02:56 UTC)


TAF: brakujący

Obserwacja i prognoza pogody dla ponad 4000 lotnisk (raport METAR i TAF).

Dostępne stacje oznaczono żółtymi i czerwonymi punktami na mapie.

Najedź kursorem aby zobaczyć nazwę stacji.

Kliknij aby zobaczyć obserwacje i prognozy pogody.

Aby zmienić mapę: kliknij na zielony przycisk z czarnym krzyżykiem, aby powiększyć; na zielony przycisk z myślnikiem, aby pomniejszyć; na zielone strzałki, aby przejść do map sąsiednich.


METAR-TAF: